sensor_id;sensor_type;location;lat;lon;timestamp;P1;durP1;ratioP1;P2;durP2;ratioP2
57055;SDS011;42945;51.718;5.324;2023-08-21T00:00:19;10.45;;;2.53;;
57055;SDS011;42945;51.718;5.324;2023-08-21T00:02:45;10.90;;;2.25;;
57055;SDS011;42945;51.718;5.324;2023-08-21T00:05:10;9.55;;;2.50;;
57055;SDS011;42945;51.718;5.324;2023-08-21T00:07:35;8.48;;;2.30;;
57055;SDS011;42945;51.718;5.324;2023-08-21T00:10:01;8.38;;;1.98;;
57055;SDS011;42945;51.718;5.324;2023-08-21T00:12:26;14.27;;;2.67;;
57055;SDS011;42945;51.718;5.324;2023-08-21T00:14:51;11.23;;;2.67;;
57055;SDS011;42945;51.718;5.324;2023-08-21T00:17:16;7.15;;;2.28;;
57055;SDS011;42945;51.718;5.324;2023-08-21T00:19:42;14.27;;;2.70;;
57055;SDS011;42945;51.718;5.324;2023-08-21T00:22:07;10.27;;;2.47;;
57055;SDS011;42945;51.718;5.324;2023-08-21T00:24:32;8.73;;;2.33;;
57055;SDS011;42945;51.718;5.324;2023-08-21T00:26:58;10.88;;;2.92;;
57055;SDS011;42945;51.718;5.324;2023-08-21T00:29:23;10.27;;;2.55;;
57055;SDS011;42945;51.718;5.324;2023-08-21T00:31:48;8.77;;;2.75;;
57055;SDS011;42945;51.718;5.324;2023-08-21T00:34:14;10.95;;;2.30;;
57055;SDS011;42945;51.718;5.324;2023-08-21T00:36:39;7.82;;;2.42;;
57055;SDS011;42945;51.718;5.324;2023-08-21T00:39:04;9.80;;;2.45;;
57055;SDS011;42945;51.718;5.324;2023-08-21T00:41:30;10.60;;;2.63;;
57055;SDS011;42945;51.718;5.324;2023-08-21T00:43:59;7.85;;;2.22;;
57055;SDS011;42945;51.718;5.324;2023-08-21T00:46:24;10.13;;;2.47;;
57055;SDS011;42945;51.718;5.324;2023-08-21T00:48:50;13.57;;;2.50;;
57055;SDS011;42945;51.718;5.324;2023-08-21T00:51:15;5.97;;;2.13;;
57055;SDS011;42945;51.718;5.324;2023-08-21T00:53:41;6.15;;;2.10;;
57055;SDS011;42945;51.718;5.324;2023-08-21T00:56:07;12.60;;;2.40;;
57055;SDS011;42945;51.718;5.324;2023-08-21T00:58:33;9.10;;;2.08;;
57055;SDS011;42945;51.718;5.324;2023-08-21T01:00:58;8.43;;;2.13;;
57055;SDS011;42945;51.718;5.324;2023-08-21T01:03:24;10.93;;;2.35;;
57055;SDS011;42945;51.718;5.324;2023-08-21T01:05:49;10.00;;;2.58;;
57055;SDS011;42945;51.718;5.324;2023-08-21T01:08:22;8.55;;;2.20;;
57055;SDS011;42945;51.718;5.324;2023-08-21T01:14:03;10.02;;;2.85;;
57055;SDS011;42945;51.718;5.324;2023-08-21T01:16:46;7.32;;;2.72;;
57055;SDS011;42945;51.718;5.324;2023-08-21T01:22:05;9.18;;;3.00;;
57055;SDS011;42945;51.718;5.324;2023-08-21T01:24:31;8.95;;;2.80;;
57055;SDS011;42945;51.718;5.324;2023-08-21T01:26:56;12.30;;;3.22;;
57055;SDS011;42945;51.718;5.324;2023-08-21T01:29:22;10.77;;;3.22;;
57055;SDS011;42945;51.718;5.324;2023-08-21T01:31:50;9.75;;;3.40;;
57055;SDS011;42945;51.718;5.324;2023-08-21T01:34:34;13.20;;;3.60;;
57055;SDS011;42945;51.718;5.324;2023-08-21T01:37:03;10.38;;;3.40;;
57055;SDS011;42945;51.718;5.324;2023-08-21T01:39:30;7.13;;;3.55;;
57055;SDS011;42945;51.718;5.324;2023-08-21T01:41:57;11.63;;;3.50;;
57055;SDS011;42945;51.718;5.324;2023-08-21T01:44:22;11.43;;;3.70;;
57055;SDS011;42945;51.718;5.324;2023-08-21T01:46:48;8.35;;;3.00;;
57055;SDS011;42945;51.718;5.324;2023-08-21T01:49:13;12.85;;;3.75;;
57055;SDS011;42945;51.718;5.324;2023-08-21T01:51:38;9.98;;;2.80;;
57055;SDS011;42945;51.718;5.324;2023-08-21T01:54:04;10.32;;;3.15;;
57055;SDS011;42945;51.718;5.324;2023-08-21T01:56:29;12.63;;;3.53;;
57055;SDS011;42945;51.718;5.324;2023-08-21T01:58:55;11.07;;;3.30;;
57055;SDS011;42945;51.718;5.324;2023-08-21T02:01:21;16.80;;;3.45;;
57055;SDS011;42945;51.718;5.324;2023-08-21T02:03:46;9.23;;;3.70;;
57055;SDS011;42945;51.718;5.324;2023-08-21T02:06:11;10.65;;;3.78;;
57055;SDS011;42945;51.718;5.324;2023-08-21T02:08:37;9.55;;;3.00;;
57055;SDS011;42945;51.718;5.324;2023-08-21T02:11:02;11.40;;;3.40;;
57055;SDS011;42945;51.718;5.324;2023-08-21T02:13:27;11.02;;;3.42;;
57055;SDS011;42945;51.718;5.324;2023-08-21T02:15:53;10.48;;;3.28;;
57055;SDS011;42945;51.718;5.324;2023-08-21T02:18:18;8.95;;;3.42;;
57055;SDS011;42945;51.718;5.324;2023-08-21T02:20:43;11.80;;;3.38;;
57055;SDS011;42945;51.718;5.324;2023-08-21T02:23:09;13.50;;;3.03;;
57055;SDS011;42945;51.718;5.324;2023-08-21T02:25:34;8.30;;;2.55;;
57055;SDS011;42945;51.718;5.324;2023-08-21T02:28:00;11.48;;;3.83;;
57055;SDS011;42945;51.718;5.324;2023-08-21T02:30:27;11.88;;;3.15;;
57055;SDS011;42945;51.718;5.324;2023-08-21T02:32:53;8.95;;;3.30;;
57055;SDS011;42945;51.718;5.324;2023-08-21T02:35:22;11.45;;;3.35;;
57055;SDS011;42945;51.718;5.324;2023-08-21T02:37:47;8.10;;;2.90;;
57055;SDS011;42945;51.718;5.324;2023-08-21T02:40:13;9.52;;;3.20;;
57055;SDS011;42945;51.718;5.324;2023-08-21T02:42:38;10.57;;;3.75;;
57055;SDS011;42945;51.718;5.324;2023-08-21T02:45:04;14.85;;;3.65;;
57055;SDS011;42945;51.718;5.324;2023-08-21T02:47:42;9.98;;;3.08;;
57055;SDS011;42945;51.718;5.324;2023-08-21T02:50:08;11.13;;;3.38;;
57055;SDS011;42945;51.718;5.324;2023-08-21T02:52:34;10.25;;;3.20;;
57055;SDS011;42945;51.718;5.324;2023-08-21T02:55:00;17.17;;;3.28;;
57055;SDS011;42945;51.718;5.324;2023-08-21T02:57:26;9.43;;;3.35;;
57055;SDS011;42945;51.718;5.324;2023-08-21T02:59:52;11.55;;;3.55;;
57055;SDS011;42945;51.718;5.324;2023-08-21T03:02:18;10.52;;;4.10;;
57055;SDS011;42945;51.718;5.324;2023-08-21T03:04:44;9.80;;;3.28;;
57055;SDS011;42945;51.718;5.324;2023-08-21T03:07:09;15.15;;;3.70;;
57055;SDS011;42945;51.718;5.324;2023-08-21T03:09:35;11.10;;;3.63;;
57055;SDS011;42945;51.718;5.324;2023-08-21T03:12:01;9.27;;;3.45;;
57055;SDS011;42945;51.718;5.324;2023-08-21T03:14:27;15.07;;;3.67;;
57055;SDS011;42945;51.718;5.324;2023-08-21T03:16:52;11.10;;;3.30;;
57055;SDS011;42945;51.718;5.324;2023-08-21T03:19:18;12.73;;;3.42;;
57055;SDS011;42945;51.718;5.324;2023-08-21T03:21:43;10.05;;;3.63;;
57055;SDS011;42945;51.718;5.324;2023-08-21T03:24:08;14.07;;;3.83;;
57055;SDS011;42945;51.718;5.324;2023-08-21T03:26:34;9.02;;;3.47;;
57055;SDS011;42945;51.718;5.324;2023-08-21T03:28:59;10.60;;;3.67;;
57055;SDS011;42945;51.718;5.324;2023-08-21T03:31:25;10.75;;;3.65;;
57055;SDS011;42945;51.718;5.324;2023-08-21T03:33:50;7.47;;;3.42;;
57055;SDS011;42945;51.718;5.324;2023-08-21T03:36:16;10.20;;;3.75;;
57055;SDS011;42945;51.718;5.324;2023-08-21T03:38:41;12.80;;;3.65;;
57055;SDS011;42945;51.718;5.324;2023-08-21T03:41:06;10.93;;;4.70;;
57055;SDS011;42945;51.718;5.324;2023-08-21T03:43:32;15.13;;;4.95;;
57055;SDS011;42945;51.718;5.324;2023-08-21T03:45:57;14.65;;;4.45;;
57055;SDS011;42945;51.718;5.324;2023-08-21T03:48:23;14.75;;;3.65;;
57055;SDS011;42945;51.718;5.324;2023-08-21T03:50:49;12.52;;;4.90;;
57055;SDS011;42945;51.718;5.324;2023-08-21T03:53:15;14.93;;;5.10;;
57055;SDS011;42945;51.718;5.324;2023-08-21T03:55:40;14.70;;;4.75;;
57055;SDS011;42945;51.718;5.324;2023-08-21T03:58:05;11.30;;;3.95;;
57055;SDS011;42945;51.718;5.324;2023-08-21T04:00:31;8.07;;;3.95;;
57055;SDS011;42945;51.718;5.324;2023-08-21T04:02:57;11.88;;;4.07;;
57055;SDS011;42945;51.718;5.324;2023-08-21T04:05:22;12.85;;;4.20;;
57055;SDS011;42945;51.718;5.324;2023-08-21T04:07:48;14.57;;;4.43;;
57055;SDS011;42945;51.718;5.324;2023-08-21T04:10:13;12.32;;;5.10;;
57055;SDS011;42945;51.718;5.324;2023-08-21T04:12:38;12.75;;;4.75;;
57055;SDS011;42945;51.718;5.324;2023-08-21T04:15:04;14.10;;;4.60;;
57055;SDS011;42945;51.718;5.324;2023-08-21T04:17:31;16.48;;;4.82;;
57055;SDS011;42945;51.718;5.324;2023-08-21T04:19:56;15.07;;;5.03;;
57055;SDS011;42945;51.718;5.324;2023-08-21T04:22:22;11.93;;;4.88;;
57055;SDS011;42945;51.718;5.324;2023-08-21T04:24:51;15.15;;;4.97;;
57055;SDS011;42945;51.718;5.324;2023-08-21T04:27:17;11.95;;;5.20;;
57055;SDS011;42945;51.718;5.324;2023-08-21T04:29:42;15.82;;;5.13;;
57055;SDS011;42945;51.718;5.324;2023-08-21T04:32:07;15.68;;;5.03;;
57055;SDS011;42945;51.718;5.324;2023-08-21T04:34:33;14.88;;;4.93;;
57055;SDS011;42945;51.718;5.324;2023-08-21T04:36:58;16.80;;;5.60;;
57055;SDS011;42945;51.718;5.324;2023-08-21T04:39:24;11.57;;;4.88;;
57055;SDS011;42945;51.718;5.324;2023-08-21T04:41:50;16.42;;;5.07;;
57055;SDS011;42945;51.718;5.324;2023-08-21T04:44:16;12.45;;;5.30;;
57055;SDS011;42945;51.718;5.324;2023-08-21T04:46:41;13.50;;;5.18;;
57055;SDS011;42945;51.718;5.324;2023-08-21T04:49:06;15.45;;;5.80;;
57055;SDS011;42945;51.718;5.324;2023-08-21T04:51:31;12.13;;;5.03;;
57055;SDS011;42945;51.718;5.324;2023-08-21T04:53:57;15.88;;;5.22;;
57055;SDS011;42945;51.718;5.324;2023-08-21T04:56:24;18.17;;;5.03;;
57055;SDS011;42945;51.718;5.324;2023-08-21T04:58:49;16.05;;;4.80;;
57055;SDS011;42945;51.718;5.324;2023-08-21T05:01:14;14.68;;;4.75;;
57055;SDS011;42945;51.718;5.324;2023-08-21T05:03:40;12.98;;;4.53;;
57055;SDS011;42945;51.718;5.324;2023-08-21T05:06:05;14.40;;;5.30;;
57055;SDS011;42945;51.718;5.324;2023-08-21T05:08:30;13.48;;;5.10;;
57055;SDS011;42945;51.718;5.324;2023-08-21T05:10:57;17.88;;;5.22;;
57055;SDS011;42945;51.718;5.324;2023-08-21T05:13:23;12.00;;;5.25;;
57055;SDS011;42945;51.718;5.324;2023-08-21T05:15:55;9.50;;;4.05;;
57055;SDS011;42945;51.718;5.324;2023-08-21T05:18:24;11.07;;;4.57;;
57055;SDS011;42945;51.718;5.324;2023-08-21T05:20:54;12.50;;;4.75;;
57055;SDS011;42945;51.718;5.324;2023-08-21T05:23:20;11.38;;;4.85;;
57055;SDS011;42945;51.718;5.324;2023-08-21T05:25:48;11.52;;;4.60;;
57055;SDS011;42945;51.718;5.324;2023-08-21T05:28:14;11.18;;;4.80;;
57055;SDS011;42945;51.718;5.324;2023-08-21T05:30:39;13.40;;;4.95;;
57055;SDS011;42945;51.718;5.324;2023-08-21T05:33:05;14.73;;;4.85;;
57055;SDS011;42945;51.718;5.324;2023-08-21T05:35:34;12.20;;;4.63;;
57055;SDS011;42945;51.718;5.324;2023-08-21T05:38:03;13.20;;;4.78;;
57055;SDS011;42945;51.718;5.324;2023-08-21T05:40:28;11.15;;;5.00;;
57055;SDS011;42945;51.718;5.324;2023-08-21T05:42:54;12.43;;;5.00;;
57055;SDS011;42945;51.718;5.324;2023-08-21T05:45:19;15.55;;;4.57;;
57055;SDS011;42945;51.718;5.324;2023-08-21T05:47:44;11.20;;;4.80;;
57055;SDS011;42945;51.718;5.324;2023-08-21T05:50:10;11.48;;;4.13;;
57055;SDS011;42945;51.718;5.324;2023-08-21T05:52:35;14.77;;;4.40;;
57055;SDS011;42945;51.718;5.324;2023-08-21T05:55:00;14.48;;;4.93;;
57055;SDS011;42945;51.718;5.324;2023-08-21T05:57:26;12.95;;;4.55;;
57055;SDS011;42945;51.718;5.324;2023-08-21T05:59:51;12.35;;;5.00;;
57055;SDS011;42945;51.718;5.324;2023-08-21T06:02:17;10.73;;;4.50;;
57055;SDS011;42945;51.718;5.324;2023-08-21T06:04:45;12.20;;;4.30;;
57055;SDS011;42945;51.718;5.324;2023-08-21T06:07:11;13.20;;;4.18;;
57055;SDS011;42945;51.718;5.324;2023-08-21T06:09:36;14.00;;;4.82;;
57055;SDS011;42945;51.718;5.324;2023-08-21T06:12:05;13.40;;;5.30;;
57055;SDS011;42945;51.718;5.324;2023-08-21T06:14:31;11.88;;;4.63;;
57055;SDS011;42945;51.718;5.324;2023-08-21T06:16:57;10.25;;;3.78;;
57055;SDS011;42945;51.718;5.324;2023-08-21T06:19:29;13.15;;;3.75;;
57055;SDS011;42945;51.718;5.324;2023-08-21T06:21:56;13.73;;;4.15;;
57055;SDS011;42945;51.718;5.324;2023-08-21T06:24:23;11.93;;;3.47;;
57055;SDS011;42945;51.718;5.324;2023-08-21T06:26:49;8.45;;;2.78;;
57055;SDS011;42945;51.718;5.324;2023-08-21T06:29:16;11.40;;;2.97;;
57055;SDS011;42945;51.718;5.324;2023-08-21T06:31:42;10.35;;;3.53;;
57055;SDS011;42945;51.718;5.324;2023-08-21T06:34:08;8.43;;;2.55;;
57055;SDS011;42945;51.718;5.324;2023-08-21T06:36:33;7.57;;;2.13;;
57055;SDS011;42945;51.718;5.324;2023-08-21T06:38:59;11.98;;;2.53;;
57055;SDS011;42945;51.718;5.324;2023-08-21T06:41:24;11.90;;;2.38;;
57055;SDS011;42945;51.718;5.324;2023-08-21T06:43:50;9.45;;;1.90;;
57055;SDS011;42945;51.718;5.324;2023-08-21T06:46:15;10.38;;;2.33;;
57055;SDS011;42945;51.718;5.324;2023-08-21T06:48:41;6.95;;;2.30;;
57055;SDS011;42945;51.718;5.324;2023-08-21T06:51:07;8.60;;;2.08;;
57055;SDS011;42945;51.718;5.324;2023-08-21T06:53:32;10.38;;;2.70;;
57055;SDS011;42945;51.718;5.324;2023-08-21T06:55:58;8.90;;;2.50;;
57055;SDS011;42945;51.718;5.324;2023-08-21T06:58:23;12.30;;;2.70;;
57055;SDS011;42945;51.718;5.324;2023-08-21T07:00:48;13.40;;;2.60;;
57055;SDS011;42945;51.718;5.324;2023-08-21T07:03:14;5.82;;;2.33;;
57055;SDS011;42945;51.718;5.324;2023-08-21T07:05:39;6.50;;;2.78;;
57055;SDS011;42945;51.718;5.324;2023-08-21T07:08:05;13.10;;;2.83;;
57055;SDS011;42945;51.718;5.324;2023-08-21T07:10:35;10.57;;;2.80;;
57055;SDS011;42945;51.718;5.324;2023-08-21T07:13:02;12.93;;;3.00;;
57055;SDS011;42945;51.718;5.324;2023-08-21T07:15:28;12.75;;;3.10;;
57055;SDS011;42945;51.718;5.324;2023-08-21T07:17:54;10.55;;;2.83;;
57055;SDS011;42945;51.718;5.324;2023-08-21T07:20:20;9.48;;;2.33;;
57055;SDS011;42945;51.718;5.324;2023-08-21T07:22:46;7.80;;;1.85;;
57055;SDS011;42945;51.718;5.324;2023-08-21T07:25:11;8.85;;;1.85;;
57055;SDS011;42945;51.718;5.324;2023-08-21T07:27:36;4.28;;;1.50;;
57055;SDS011;42945;51.718;5.324;2023-08-21T07:30:02;11.07;;;1.60;;
57055;SDS011;42945;51.718;5.324;2023-08-21T07:32:27;8.52;;;1.88;;
57055;SDS011;42945;51.718;5.324;2023-08-21T07:34:53;9.32;;;1.95;;
57055;SDS011;42945;51.718;5.324;2023-08-21T07:37:21;10.45;;;2.17;;
57055;SDS011;42945;51.718;5.324;2023-08-21T07:39:47;7.18;;;1.77;;
57055;SDS011;42945;51.718;5.324;2023-08-21T07:42:12;11.20;;;2.10;;
57055;SDS011;42945;51.718;5.324;2023-08-21T07:44:41;10.80;;;2.40;;
57055;SDS011;42945;51.718;5.324;2023-08-21T07:47:06;12.07;;;3.25;;
57055;SDS011;42945;51.718;5.324;2023-08-21T07:49:34;12.55;;;3.03;;
57055;SDS011;42945;51.718;5.324;2023-08-21T07:52:00;11.05;;;2.88;;
57055;SDS011;42945;51.718;5.324;2023-08-21T07:54:25;8.63;;;2.70;;
57055;SDS011;42945;51.718;5.324;2023-08-21T07:56:50;12.10;;;2.80;;
57055;SDS011;42945;51.718;5.324;2023-08-21T07:59:16;11.38;;;2.40;;
57055;SDS011;42945;51.718;5.324;2023-08-21T08:01:42;10.77;;;2.50;;
57055;SDS011;42945;51.718;5.324;2023-08-21T08:04:07;13.88;;;2.80;;
57055;SDS011;42945;51.718;5.324;2023-08-21T08:06:33;10.07;;;2.55;;
57055;SDS011;42945;51.718;5.324;2023-08-21T08:08:59;10.77;;;2.65;;
57055;SDS011;42945;51.718;5.324;2023-08-21T08:11:24;13.93;;;2.85;;
57055;SDS011;42945;51.718;5.324;2023-08-21T08:13:49;11.10;;;2.58;;
57055;SDS011;42945;51.718;5.324;2023-08-21T08:16:15;10.48;;;2.03;;
57055;SDS011;42945;51.718;5.324;2023-08-21T08:18:41;9.70;;;2.53;;
57055;SDS011;42945;51.718;5.324;2023-08-21T08:21:07;9.20;;;3.15;;
57055;SDS011;42945;51.718;5.324;2023-08-21T08:23:32;10.05;;;3.20;;
57055;SDS011;42945;51.718;5.324;2023-08-21T08:25:58;9.13;;;2.40;;
57055;SDS011;42945;51.718;5.324;2023-08-21T08:28:23;12.35;;;2.10;;
57055;SDS011;42945;51.718;5.324;2023-08-21T08:30:48;8.95;;;1.75;;
57055;SDS011;42945;51.718;5.324;2023-08-21T08:33:15;7.65;;;1.85;;
57055;SDS011;42945;51.718;5.324;2023-08-21T08:35:40;8.80;;;1.88;;
57055;SDS011;42945;51.718;5.324;2023-08-21T08:38:06;12.70;;;1.50;;
57055;SDS011;42945;51.718;5.324;2023-08-21T08:40:31;10.95;;;2.03;;
57055;SDS011;42945;51.718;5.324;2023-08-21T08:42:58;8.48;;;1.90;;
57055;SDS011;42945;51.718;5.324;2023-08-21T08:45:28;10.52;;;1.70;;
57055;SDS011;42945;51.718;5.324;2023-08-21T08:48:00;11.23;;;2.17;;
57055;SDS011;42945;51.718;5.324;2023-08-21T08:50:28;7.18;;;2.10;;
57055;SDS011;42945;51.718;5.324;2023-08-21T08:52:55;10.25;;;1.88;;
57055;SDS011;42945;51.718;5.324;2023-08-21T08:55:22;7.38;;;1.73;;
57055;SDS011;42945;51.718;5.324;2023-08-21T08:57:48;8.38;;;2.03;;
57055;SDS011;42945;51.718;5.324;2023-08-21T09:00:14;7.45;;;2.13;;
57055;SDS011;42945;51.718;5.324;2023-08-21T09:02:40;7.03;;;1.65;;
57055;SDS011;42945;51.718;5.324;2023-08-21T09:05:06;8.20;;;1.55;;
57055;SDS011;42945;51.718;5.324;2023-08-21T09:07:33;9.75;;;1.90;;
57055;SDS011;42945;51.718;5.324;2023-08-21T09:09:58;10.88;;;1.80;;
57055;SDS011;42945;51.718;5.324;2023-08-21T09:12:24;10.88;;;1.80;;
57055;SDS011;42945;51.718;5.324;2023-08-21T09:14:49;9.40;;;1.85;;
57055;SDS011;42945;51.718;5.324;2023-08-21T09:17:15;6.10;;;1.50;;
57055;SDS011;42945;51.718;5.324;2023-08-21T09:19:41;8.57;;;1.60;;
57055;SDS011;42945;51.718;5.324;2023-08-21T09:22:07;7.47;;;1.63;;
57055;SDS011;42945;51.718;5.324;2023-08-21T09:24:37;7.07;;;1.58;;
57055;SDS011;42945;51.718;5.324;2023-08-21T09:27:03;8.15;;;1.65;;
57055;SDS011;42945;51.718;5.324;2023-08-21T09:29:39;8.13;;;1.50;;
57055;SDS011;42945;51.718;5.324;2023-08-21T09:32:07;6.88;;;1.85;;
57055;SDS011;42945;51.718;5.324;2023-08-21T09:34:33;5.97;;;1.60;;
57055;SDS011;42945;51.718;5.324;2023-08-21T09:37:05;8.07;;;1.75;;
57055;SDS011;42945;51.718;5.324;2023-08-21T09:39:33;9.68;;;1.95;;
57055;SDS011;42945;51.718;5.324;2023-08-21T09:42:08;7.68;;;1.80;;
57055;SDS011;42945;51.718;5.324;2023-08-21T09:44:37;7.75;;;1.58;;
57055;SDS011;42945;51.718;5.324;2023-08-21T09:47:04;9.45;;;1.77;;
57055;SDS011;42945;51.718;5.324;2023-08-21T09:49:33;6.53;;;1.45;;
57055;SDS011;42945;51.718;5.324;2023-08-21T09:51:59;6.10;;;1.17;;
57055;SDS011;42945;51.718;5.324;2023-08-21T09:54:26;6.78;;;1.40;;
57055;SDS011;42945;51.718;5.324;2023-08-21T09:56:53;8.55;;;1.60;;
57055;SDS011;42945;51.718;5.324;2023-08-21T09:59:19;12.27;;;1.58;;
57055;SDS011;42945;51.718;5.324;2023-08-21T10:01:47;8.88;;;1.75;;
57055;SDS011;42945;51.718;5.324;2023-08-21T10:04:16;9.88;;;1.70;;
57055;SDS011;42945;51.718;5.324;2023-08-21T10:06:42;10.13;;;1.15;;
57055;SDS011;42945;51.718;5.324;2023-08-21T10:09:09;9.63;;;1.30;;
57055;SDS011;42945;51.718;5.324;2023-08-21T10:11:34;7.88;;;1.60;;
57055;SDS011;42945;51.718;5.324;2023-08-21T10:14:00;4.95;;;1.35;;
57055;SDS011;42945;51.718;5.324;2023-08-21T10:16:26;9.32;;;1.42;;
57055;SDS011;42945;51.718;5.324;2023-08-21T10:18:51;7.00;;;1.08;;
57055;SDS011;42945;51.718;5.324;2023-08-21T10:21:18;5.40;;;1.05;;
57055;SDS011;42945;51.718;5.324;2023-08-21T10:23:49;5.88;;;1.23;;
57055;SDS011;42945;51.718;5.324;2023-08-21T10:26:22;5.45;;;1.02;;
57055;SDS011;42945;51.718;5.324;2023-08-21T10:34:07;10.57;;;1.08;;
57055;SDS011;42945;51.718;5.324;2023-08-21T10:39:16;5.47;;;1.27;;
57055;SDS011;42945;51.718;5.324;2023-08-21T10:44:35;6.80;;;1.33;;
57055;SDS011;42945;51.718;5.324;2023-08-21T10:47:17;4.32;;;1.10;;
57055;SDS011;42945;51.718;5.324;2023-08-21T10:49:53;2.50;;;0.68;;
57055;SDS011;42945;51.718;5.324;2023-08-21T10:52:26;3.50;;;1.35;;
57055;SDS011;42945;51.718;5.324;2023-08-21T10:55:00;4.82;;;1.33;;
57055;SDS011;42945;51.718;5.324;2023-08-21T10:57:27;6.10;;;1.00;;
57055;SDS011;42945;51.718;5.324;2023-08-21T11:02:19;6.40;;;1.13;;
57055;SDS011;42945;51.718;5.324;2023-08-21T11:04:44;6.60;;;1.13;;
57055;SDS011;42945;51.718;5.324;2023-08-21T11:07:10;4.50;;;1.27;;
57055;SDS011;42945;51.718;5.324;2023-08-21T11:09:37;5.20;;;1.17;;
57055;SDS011;42945;51.718;5.324;2023-08-21T11:12:07;5.18;;;0.90;;
57055;SDS011;42945;51.718;5.324;2023-08-21T11:14:34;1.92;;;0.52;;
57055;SDS011;42945;51.718;5.324;2023-08-21T11:17:00;3.75;;;0.75;;
57055;SDS011;42945;51.718;5.324;2023-08-21T11:19:26;5.07;;;0.95;;
57055;SDS011;42945;51.718;5.324;2023-08-21T11:21:51;5.10;;;0.75;;
57055;SDS011;42945;51.718;5.324;2023-08-21T11:24:17;5.18;;;0.77;;
57055;SDS011;42945;51.718;5.324;2023-08-21T11:26:42;6.28;;;0.80;;
57055;SDS011;42945;51.718;5.324;2023-08-21T11:29:08;5.53;;;1.08;;
57055;SDS011;42945;51.718;5.324;2023-08-21T11:31:33;5.00;;;0.60;;
57055;SDS011;42945;51.718;5.324;2023-08-21T11:33:58;3.30;;;0.50;;
57055;SDS011;42945;51.718;5.324;2023-08-21T11:36:23;2.63;;;0.50;;
57055;SDS011;42945;51.718;5.324;2023-08-21T11:38:59;4.07;;;0.50;;
57055;SDS011;42945;51.718;5.324;2023-08-21T11:41:25;4.50;;;1.35;;
57055;SDS011;42945;51.718;5.324;2023-08-21T11:43:51;2.25;;;0.60;;
57055;SDS011;42945;51.718;5.324;2023-08-21T11:46:17;5.03;;;0.75;;
57055;SDS011;42945;51.718;5.324;2023-08-21T11:48:44;9.10;;;1.30;;
57055;SDS011;42945;51.718;5.324;2023-08-21T11:51:12;3.08;;;0.80;;
57055;SDS011;42945;51.718;5.324;2023-08-21T11:53:39;3.33;;;0.70;;
57055;SDS011;42945;51.718;5.324;2023-08-21T11:56:09;4.10;;;0.82;;
57055;SDS011;42945;51.718;5.324;2023-08-21T11:58:39;5.15;;;1.13;;
57055;SDS011;42945;51.718;5.324;2023-08-21T12:01:05;7.38;;;0.90;;
57055;SDS011;42945;51.718;5.324;2023-08-21T12:03:41;4.78;;;0.90;;
57055;SDS011;42945;51.718;5.324;2023-08-21T12:06:07;3.25;;;0.75;;
57055;SDS011;42945;51.718;5.324;2023-08-21T12:08:33;1.73;;;0.52;;
57055;SDS011;42945;51.718;5.324;2023-08-21T12:10:59;3.92;;;0.70;;
57055;SDS011;42945;51.718;5.324;2023-08-21T12:13:24;2.95;;;0.68;;
57055;SDS011;42945;51.718;5.324;2023-08-21T12:15:49;7.68;;;1.02;;
57055;SDS011;42945;51.718;5.324;2023-08-21T12:18:15;2.67;;;0.70;;
57055;SDS011;42945;51.718;5.324;2023-08-21T12:20:40;3.72;;;0.85;;
57055;SDS011;42945;51.718;5.324;2023-08-21T12:23:06;3.03;;;0.73;;
57055;SDS011;42945;51.718;5.324;2023-08-21T12:25:31;2.67;;;0.60;;
57055;SDS011;42945;51.718;5.324;2023-08-21T12:27:57;4.82;;;0.70;;
57055;SDS011;42945;51.718;5.324;2023-08-21T12:30:22;2.58;;;0.50;;
57055;SDS011;42945;51.718;5.324;2023-08-21T12:32:48;4.07;;;0.80;;
57055;SDS011;42945;51.718;5.324;2023-08-21T12:35:13;5.40;;;0.82;;
57055;SDS011;42945;51.718;5.324;2023-08-21T12:37:38;5.90;;;1.05;;
57055;SDS011;42945;51.718;5.324;2023-08-21T12:40:04;3.40;;;1.02;;
57055;SDS011;42945;51.718;5.324;2023-08-21T12:42:30;4.85;;;0.70;;
57055;SDS011;42945;51.718;5.324;2023-08-21T12:44:55;4.03;;;0.65;;
57055;SDS011;42945;51.718;5.324;2023-08-21T12:47:20;5.75;;;1.00;;
57055;SDS011;42945;51.718;5.324;2023-08-21T12:49:46;2.80;;;0.85;;
57055;SDS011;42945;51.718;5.324;2023-08-21T12:52:11;4.25;;;0.70;;
57055;SDS011;42945;51.718;5.324;2023-08-21T12:54:37;3.80;;;0.80;;
57055;SDS011;42945;51.718;5.324;2023-08-21T12:57:03;2.85;;;0.77;;
57055;SDS011;42945;51.718;5.324;2023-08-21T12:59:29;4.18;;;0.80;;
57055;SDS011;42945;51.718;5.324;2023-08-21T13:01:54;4.63;;;0.98;;
57055;SDS011;42945;51.718;5.324;2023-08-21T13:04:19;3.38;;;0.70;;
57055;SDS011;42945;51.718;5.324;2023-08-21T13:06:45;4.45;;;0.73;;
57055;SDS011;42945;51.718;5.324;2023-08-21T13:09:11;2.40;;;0.90;;
57055;SDS011;42945;51.718;5.324;2023-08-21T13:11:37;2.63;;;0.70;;
57055;SDS011;42945;51.718;5.324;2023-08-21T13:14:02;3.95;;;0.60;;
57055;SDS011;42945;51.718;5.324;2023-08-21T13:16:28;6.05;;;0.95;;
57055;SDS011;42945;51.718;5.324;2023-08-21T13:18:53;6.03;;;1.23;;
57055;SDS011;42945;51.718;5.324;2023-08-21T13:21:19;3.30;;;0.80;;
57055;SDS011;42945;51.718;5.324;2023-08-21T13:23:44;2.70;;;0.65;;
57055;SDS011;42945;51.718;5.324;2023-08-21T13:26:10;3.47;;;1.00;;
57055;SDS011;42945;51.718;5.324;2023-08-21T13:28:36;7.82;;;1.02;;
57055;SDS011;42945;51.718;5.324;2023-08-21T13:31:01;5.10;;;1.13;;
57055;SDS011;42945;51.718;5.324;2023-08-21T13:33:28;4.22;;;0.90;;
57055;SDS011;42945;51.718;5.324;2023-08-21T13:35:53;3.35;;;0.63;;
57055;SDS011;42945;51.718;5.324;2023-08-21T13:38:18;4.97;;;1.20;;
57055;SDS011;42945;51.718;5.324;2023-08-21T13:40:44;3.88;;;0.75;;
57055;SDS011;42945;51.718;5.324;2023-08-21T13:43:09;4.22;;;0.80;;
57055;SDS011;42945;51.718;5.324;2023-08-21T13:45:35;8.25;;;1.10;;
57055;SDS011;42945;51.718;5.324;2023-08-21T13:48:01;5.68;;;0.80;;
57055;SDS011;42945;51.718;5.324;2023-08-21T13:50:26;3.53;;;0.70;;
57055;SDS011;42945;51.718;5.324;2023-08-21T13:52:52;5.72;;;0.88;;
57055;SDS011;42945;51.718;5.324;2023-08-21T13:55:17;4.07;;;1.10;;
57055;SDS011;42945;51.718;5.324;2023-08-21T13:57:42;2.83;;;0.60;;
57055;SDS011;42945;51.718;5.324;2023-08-21T14:00:09;2.83;;;0.75;;
57055;SDS011;42945;51.718;5.324;2023-08-21T14:02:38;4.43;;;0.70;;
57055;SDS011;42945;51.718;5.324;2023-08-21T14:05:05;3.00;;;0.57;;
57055;SDS011;42945;51.718;5.324;2023-08-21T14:07:32;4.45;;;0.60;;
57055;SDS011;42945;51.718;5.324;2023-08-21T14:09:58;3.67;;;0.57;;
57055;SDS011;42945;51.718;5.324;2023-08-21T14:12:24;4.38;;;0.70;;
57055;SDS011;42945;51.718;5.324;2023-08-21T14:14:49;5.22;;;0.70;;
57055;SDS011;42945;51.718;5.324;2023-08-21T14:17:16;2.97;;;0.50;;
57055;SDS011;42945;51.718;5.324;2023-08-21T14:19:42;3.30;;;0.50;;
57055;SDS011;42945;51.718;5.324;2023-08-21T14:22:07;2.40;;;0.60;;
57055;SDS011;42945;51.718;5.324;2023-08-21T14:24:32;1.33;;;0.30;;
57055;SDS011;42945;51.718;5.324;2023-08-21T14:26:58;4.43;;;0.68;;
57055;SDS011;42945;51.718;5.324;2023-08-21T14:29:25;3.58;;;0.52;;
57055;SDS011;42945;51.718;5.324;2023-08-21T14:31:50;2.45;;;0.88;;
57055;SDS011;42945;51.718;5.324;2023-08-21T14:34:18;5.70;;;0.50;;
57055;SDS011;42945;51.718;5.324;2023-08-21T14:36:45;2.50;;;0.60;;
57055;SDS011;42945;51.718;5.324;2023-08-21T14:39:10;4.57;;;0.50;;
57055;SDS011;42945;51.718;5.324;2023-08-21T14:41:37;6.03;;;0.60;;
57055;SDS011;42945;51.718;5.324;2023-08-21T14:44:03;2.05;;;0.50;;
57055;SDS011;42945;51.718;5.324;2023-08-21T14:46:28;3.00;;;0.73;;
57055;SDS011;42945;51.718;5.324;2023-08-21T14:48:54;7.30;;;1.00;;
57055;SDS011;42945;51.718;5.324;2023-08-21T14:51:19;6.07;;;0.82;;
57055;SDS011;42945;51.718;5.324;2023-08-21T14:53:44;4.15;;;0.70;;